sensor_id;sensor_type;location;lat;lon;timestamp;pressure;altitude;pressure_sealevel;temperature;humidity
43934;BME280;59081;42.706;23.306;2022-09-09T00:00:49;95263.81;;;18.08;61.15
43934;BME280;59081;42.706;23.306;2022-09-09T00:03:42;95437.13;;;19.21;62.04
43934;BME280;59081;42.706;23.306;2022-09-09T00:06:24;95371.81;;;18.77;62.20
43934;BME280;59081;42.706;23.306;2022-09-09T00:09:35;95469.69;;;19.44;62.47
43934;BME280;59081;42.706;23.306;2022-09-09T00:12:12;95401.13;;;18.88;62.90
43934;BME280;59081;42.706;23.306;2022-09-09T00:15:00;95475.19;;;19.18;63.88
43934;BME280;59081;42.706;23.306;2022-09-09T00:22:28;95406.41;;;18.51;64.66
43934;BME280;59081;42.706;23.306;2022-09-09T00:25:03;95376.34;;;18.25;65.02
43934;BME280;59081;42.706;23.306;2022-09-09T00:27:47;95443.81;;;18.73;65.48
43934;BME280;59081;42.706;23.306;2022-09-09T00:30:21;95351.38;;;18.16;65.82
43934;BME280;59081;42.706;23.306;2022-09-09T00:33:10;95315.72;;;17.91;65.48
43934;BME280;59081;42.706;23.306;2022-09-09T00:35:44;95385.75;;;18.42;65.28
43934;BME280;59081;42.706;23.306;2022-09-09T00:38:17;95350.47;;;18.25;65.55
43934;BME280;59081;42.706;23.306;2022-09-09T00:40:52;95414.75;;;18.80;65.46
43934;BME280;59081;42.706;23.306;2022-09-09T00:43:32;95268.00;;;17.83;65.15
43934;BME280;59081;42.706;23.306;2022-09-09T00:46:09;95297.81;;;18.12;65.08
43934;BME280;59081;42.706;23.306;2022-09-09T00:51:21;95356.88;;;18.46;64.86
43934;BME280;59081;42.706;23.306;2022-09-09T00:54:10;95440.69;;;19.01;64.89
43934;BME280;59081;42.706;23.306;2022-09-09T00:56:46;95429.56;;;18.86;64.35
43934;BME280;59081;42.706;23.306;2022-09-09T01:01:50;95279.63;;;17.82;64.56
43934;BME280;59081;42.706;23.306;2022-09-09T01:04:24;95327.13;;;18.07;64.56
43934;BME280;59081;42.706;23.306;2022-09-09T01:07:00;95389.78;;;18.41;64.78
43934;BME280;59081;42.706;23.306;2022-09-09T01:09:32;95374.72;;;18.33;64.23
43934;BME280;59081;42.706;23.306;2022-09-09T01:12:23;95436.34;;;18.50;64.90
43934;BME280;59081;42.706;23.306;2022-09-09T01:14:52;95358.69;;;17.99;65.05
43934;BME280;59081;42.706;23.306;2022-09-09T01:18:00;95362.50;;;17.87;64.66
43934;BME280;59081;42.706;23.306;2022-09-09T01:20:29;95331.19;;;17.62;65.48
43934;BME280;59081;42.706;23.306;2022-09-09T01:28:13;95430.56;;;18.39;65.94
43934;BME280;59081;42.706;23.306;2022-09-09T01:30:41;95364.81;;;18.03;65.60
43934;BME280;59081;42.706;23.306;2022-09-09T01:33:12;95368.47;;;18.09;65.75
43934;BME280;59081;42.706;23.306;2022-09-09T01:38:28;95273.72;;;17.21;66.49
43934;BME280;59081;42.706;23.306;2022-09-09T01:40:54;95311.75;;;17.38;66.75
43934;BME280;59081;42.706;23.306;2022-09-09T01:43:23;95458.16;;;18.37;66.41
43934;BME280;59081;42.706;23.306;2022-09-09T01:45:53;95441.06;;;18.29;66.50
43934;BME280;59081;42.706;23.306;2022-09-09T01:48:21;95321.94;;;17.56;65.79
43934;BME280;59081;42.706;23.306;2022-09-09T01:50:47;95368.31;;;17.83;65.57
43934;BME280;59081;42.706;23.306;2022-09-09T01:53:14;95460.09;;;18.46;65.49
43934;BME280;59081;42.706;23.306;2022-09-09T01:55:48;95327.50;;;17.56;65.21
43934;BME280;59081;42.706;23.306;2022-09-09T02:01:05;95325.03;;;17.58;65.48
43934;BME280;59081;42.706;23.306;2022-09-09T02:03:35;95368.31;;;17.83;65.91
43934;BME280;59081;42.706;23.306;2022-09-09T02:08:50;95357.84;;;17.54;67.35
43934;BME280;59081;42.706;23.306;2022-09-09T02:11:19;95407.31;;;17.98;67.42
43934;BME280;59081;42.706;23.306;2022-09-09T02:13:48;95436.34;;;18.21;67.44
43934;BME280;59081;42.706;23.306;2022-09-09T02:16:44;95425.38;;;18.02;68.40
43934;BME280;59081;42.706;23.306;2022-09-09T02:19:17;95346.53;;;17.43;67.79
43934;BME280;59081;42.706;23.306;2022-09-09T02:21:49;95417.69;;;17.97;67.90
43934;BME280;59081;42.706;23.306;2022-09-09T02:24:15;95270.44;;;17.08;67.46
43934;BME280;59081;42.706;23.306;2022-09-09T02:26:42;95356.34;;;17.68;67.29
43934;BME280;59081;42.706;23.306;2022-09-09T02:29:13;95356.44;;;17.59;67.79
43934;BME280;59081;42.706;23.306;2022-09-09T02:31:41;95316.53;;;17.23;68.14
43934;BME280;59081;42.706;23.306;2022-09-09T02:34:08;95426.53;;;17.96;68.59
43934;BME280;59081;42.706;23.306;2022-09-09T02:36:36;95299.03;;;17.08;68.39
43934;BME280;59081;42.706;23.306;2022-09-09T02:39:05;95348.72;;;17.39;68.57
43934;BME280;59081;42.706;23.306;2022-09-09T02:41:34;95400.88;;;17.53;69.32
43934;BME280;59081;42.706;23.306;2022-09-09T02:44:00;95386.03;;;17.32;69.67
43934;BME280;59081;42.706;23.306;2022-09-09T02:52:20;95364.88;;;16.87;70.59
43934;BME280;59081;42.706;23.306;2022-09-09T02:55:04;95405.13;;;17.01;70.85
43934;BME280;59081;42.706;23.306;2022-09-09T02:57:33;95254.44;;;16.07;70.72
43934;BME280;59081;42.706;23.306;2022-09-09T03:00:00;95307.03;;;16.44;70.71
43934;BME280;59081;42.706;23.306;2022-09-09T03:02:26;95344.31;;;16.61;70.50
43934;BME280;59081;42.706;23.306;2022-09-09T03:04:52;95442.88;;;17.26;70.72
43934;BME280;59081;42.706;23.306;2022-09-09T03:07:21;95333.72;;;16.50;70.95
43934;BME280;59081;42.706;23.306;2022-09-09T03:09:46;95242.94;;;15.90;71.02
43934;BME280;59081;42.706;23.306;2022-09-09T03:12:12;95315.59;;;16.31;71.11
43934;BME280;59081;42.706;23.306;2022-09-09T03:14:38;95363.75;;;16.70;70.96
43934;BME280;59081;42.706;23.306;2022-09-09T03:17:05;95403.81;;;16.96;70.91
43934;BME280;59081;42.706;23.306;2022-09-09T03:19:31;95390.09;;;16.84;70.53
43934;BME280;59081;42.706;23.306;2022-09-09T03:21:57;95413.09;;;16.93;71.18
43934;BME280;59081;42.706;23.306;2022-09-09T03:24:23;95335.22;;;16.60;70.63
43934;BME280;59081;42.706;23.306;2022-09-09T03:26:49;95310.75;;;16.41;70.60
43934;BME280;59081;42.706;23.306;2022-09-09T03:29:15;95344.81;;;16.59;70.83
43934;BME280;59081;42.706;23.306;2022-09-09T03:31:41;95379.50;;;16.73;71.00
43934;BME280;59081;42.706;23.306;2022-09-09T03:34:07;95311.69;;;16.38;70.59
43934;BME280;59081;42.706;23.306;2022-09-09T03:36:33;95336.28;;;16.63;70.06
43934;BME280;59081;42.706;23.306;2022-09-09T03:38:59;95433.50;;;17.38;69.95
43934;BME280;59081;42.706;23.306;2022-09-09T03:41:25;95286.03;;;16.43;69.98
43934;BME280;59081;42.706;23.306;2022-09-09T03:43:52;95351.06;;;16.78;70.21
43934;BME280;59081;42.706;23.306;2022-09-09T03:46:36;95434.56;;;17.17;70.84
43934;BME280;59081;42.706;23.306;2022-09-09T03:49:02;95363.50;;;16.59;70.90
43934;BME280;59081;42.706;23.306;2022-09-09T03:51:28;95418.59;;;17.02;70.97
43934;BME280;59081;42.706;23.306;2022-09-09T03:53:53;95357.59;;;16.66;71.21
43934;BME280;59081;42.706;23.306;2022-09-09T03:56:22;95355.28;;;16.64;71.08
43934;BME280;59081;42.706;23.306;2022-09-09T03:58:47;95402.81;;;17.47;77.71
43934;BME280;59081;42.706;23.306;2022-09-09T04:01:14;95401.63;;;18.07;76.40
43934;BME280;59081;42.706;23.306;2022-09-09T04:03:40;95242.53;;;17.46;70.55
43934;BME280;59081;42.706;23.306;2022-09-09T04:06:07;95459.81;;;19.28;68.06
43934;BME280;59081;42.706;23.306;2022-09-09T04:08:34;95392.19;;;19.19;65.93
43934;BME280;59081;42.706;23.306;2022-09-09T04:11:01;95322.66;;;19.00;64.20
43934;BME280;59081;42.706;23.306;2022-09-09T04:13:30;95379.19;;;19.56;62.63
43934;BME280;59081;42.706;23.306;2022-09-09T04:15:58;95389.06;;;19.77;61.94
43934;BME280;59081;42.706;23.306;2022-09-09T04:18:24;95404.53;;;19.99;60.84
43934;BME280;59081;42.706;23.306;2022-09-09T04:20:52;95378.66;;;20.04;60.29
43934;BME280;59081;42.706;23.306;2022-09-09T04:23:18;95400.22;;;20.29;58.81
43934;BME280;59081;42.706;23.306;2022-09-09T04:25:49;95323.28;;;19.82;58.94
43934;BME280;59081;42.706;23.306;2022-09-09T04:28:16;95397.28;;;20.38;58.26
43934;BME280;59081;42.706;23.306;2022-09-09T04:30:43;95367.34;;;20.19;57.91
43934;BME280;59081;42.706;23.306;2022-09-09T04:33:09;95373.00;;;20.30;57.85
43934;BME280;59081;42.706;23.306;2022-09-09T04:35:35;95293.38;;;19.88;57.43
43934;BME280;59081;42.706;23.306;2022-09-09T04:38:01;95398.06;;;20.76;57.06
43934;BME280;59081;42.706;23.306;2022-09-09T04:40:28;95353.63;;;20.52;56.46
43934;BME280;59081;42.706;23.306;2022-09-09T04:42:55;95411.47;;;21.03;56.36
43934;BME280;59081;42.706;23.306;2022-09-09T04:45:21;95277.91;;;20.30;55.65
43934;BME280;59081;42.706;23.306;2022-09-09T04:47:46;95438.97;;;20.68;56.18
43934;BME280;59081;42.706;23.306;2022-09-09T04:50:12;95328.78;;;19.71;56.79
43934;BME280;59081;42.706;23.306;2022-09-09T04:52:37;95416.31;;;20.08;57.38
43934;BME280;59081;42.706;23.306;2022-09-09T04:55:03;95407.81;;;19.97;57.71
43934;BME280;59081;42.706;23.306;2022-09-09T04:57:29;95378.75;;;19.63;58.84
43934;BME280;59081;42.706;23.306;2022-09-09T04:59:57;95364.06;;;18.67;61.65
43934;BME280;59081;42.706;23.306;2022-09-09T05:02:27;95409.09;;;18.60;63.21
43934;BME280;59081;42.706;23.306;2022-09-09T05:04:52;95381.66;;;18.58;63.38
43934;BME280;59081;42.706;23.306;2022-09-09T05:07:19;95370.63;;;18.64;63.60
43934;BME280;59081;42.706;23.306;2022-09-09T05:09:44;95359.06;;;18.91;63.50
43934;BME280;59081;42.706;23.306;2022-09-09T05:12:10;95278.44;;;18.58;62.73
43934;BME280;59081;42.706;23.306;2022-09-09T05:14:36;95386.44;;;19.48;61.66
43934;BME280;59081;42.706;23.306;2022-09-09T05:17:03;95446.19;;;19.97;61.60
43934;BME280;59081;42.706;23.306;2022-09-09T05:19:28;95439.19;;;20.07;61.01
43934;BME280;59081;42.706;23.306;2022-09-09T05:21:55;95369.72;;;19.74;60.07
43934;BME280;59081;42.706;23.306;2022-09-09T05:24:22;95369.63;;;19.89;59.19
43934;BME280;59081;42.706;23.306;2022-09-09T05:26:48;95443.88;;;20.41;59.05
43934;BME280;59081;42.706;23.306;2022-09-09T05:29:14;95321.06;;;19.60;57.47
43934;BME280;59081;42.706;23.306;2022-09-09T05:31:39;95373.69;;;19.88;58.08
43934;BME280;59081;42.706;23.306;2022-09-09T05:34:06;95350.69;;;20.04;60.45
43934;BME280;59081;42.706;23.306;2022-09-09T05:36:31;95329.78;;;20.25;60.92
43934;BME280;59081;42.706;23.306;2022-09-09T05:38:57;95357.34;;;20.75;59.94
43934;BME280;59081;42.706;23.306;2022-09-09T05:41:23;95352.06;;;20.88;58.88
43934;BME280;59081;42.706;23.306;2022-09-09T05:43:48;95336.59;;;20.98;56.63
43934;BME280;59081;42.706;23.306;2022-09-09T05:46:17;95371.97;;;21.44;55.98
43934;BME280;59081;42.706;23.306;2022-09-09T05:48:44;95416.69;;;21.86;56.02
43934;BME280;59081;42.706;23.306;2022-09-09T05:51:21;95439.19;;;21.98;54.56
43934;BME280;59081;42.706;23.306;2022-09-09T05:53:48;95297.72;;;21.17;54.38
43934;BME280;59081;42.706;23.306;2022-09-09T05:56:18;95377.91;;;21.68;55.91
43934;BME280;59081;42.706;23.306;2022-09-09T05:58:45;95362.59;;;21.58;55.01
43934;BME280;59081;42.706;23.306;2022-09-09T06:01:17;95317.16;;;21.37;52.52
43934;BME280;59081;42.706;23.306;2022-09-09T06:03:44;95395.75;;;21.71;52.88
43934;BME280;59081;42.706;23.306;2022-09-09T06:06:12;95373.56;;;21.08;53.26
43934;BME280;59081;42.706;23.306;2022-09-09T06:08:39;95406.69;;;21.09;54.84
43934;BME280;59081;42.706;23.306;2022-09-09T06:11:10;95447.94;;;21.09;54.95
43934;BME280;59081;42.706;23.306;2022-09-09T06:13:37;95467.31;;;21.18;55.94
43934;BME280;59081;42.706;23.306;2022-09-09T06:16:05;95386.13;;;20.75;55.05
43934;BME280;59081;42.706;23.306;2022-09-09T06:18:32;95425.44;;;20.98;54.87
43934;BME280;59081;42.706;23.306;2022-09-09T06:21:02;95360.69;;;20.16;55.97
43934;BME280;59081;42.706;23.306;2022-09-09T06:23:32;95450.06;;;20.88;55.59
43934;BME280;59081;42.706;23.306;2022-09-09T06:26:03;95460.56;;;20.99;54.73
43934;BME280;59081;42.706;23.306;2022-09-09T06:28:31;95469.94;;;20.90;54.77
43934;BME280;59081;42.706;23.306;2022-09-09T06:31:00;95407.19;;;20.13;56.08
43934;BME280;59081;42.706;23.306;2022-09-09T06:33:27;95430.56;;;19.85;56.88
43934;BME280;59081;42.706;23.306;2022-09-09T06:35:55;95347.31;;;19.48;57.16
43934;BME280;59081;42.706;23.306;2022-09-09T06:38:22;95296.66;;;19.35;57.09
43934;BME280;59081;42.706;23.306;2022-09-09T06:40:53;95349.22;;;19.36;56.80
43934;BME280;59081;42.706;23.306;2022-09-09T06:43:21;95378.75;;;19.63;57.02
43934;BME280;59081;42.706;23.306;2022-09-09T06:48:19;95443.69;;;20.25;56.88
43934;BME280;59081;42.706;23.306;2022-09-09T06:50:45;95360.00;;;19.95;56.55
43934;BME280;59081;42.706;23.306;2022-09-09T06:53:10;95362.66;;;20.10;54.44
43934;BME280;59081;42.706;23.306;2022-09-09T06:55:35;95411.63;;;20.52;52.96
43934;BME280;59081;42.706;23.306;2022-09-09T06:58:01;95435.72;;;20.43;52.41
43934;BME280;59081;42.706;23.306;2022-09-09T07:00:26;95418.66;;;20.15;52.52
43934;BME280;59081;42.706;23.306;2022-09-09T07:02:52;95326.09;;;19.82;52.54
43934;BME280;59081;42.706;23.306;2022-09-09T07:05:17;95359.66;;;20.13;51.02
43934;BME280;59081;42.706;23.306;2022-09-09T07:07:43;95477.41;;;21.04;51.50
43934;BME280;59081;42.706;23.306;2022-09-09T07:10:08;95320.84;;;20.27;51.64
43934;BME280;59081;42.706;23.306;2022-09-09T07:12:34;95332.56;;;20.57;51.07
43934;BME280;59081;42.706;23.306;2022-09-09T07:14:59;95338.38;;;20.53;51.22
43934;BME280;59081;42.706;23.306;2022-09-09T07:17:25;95454.31;;;21.58;51.09
43934;BME280;59081;42.706;23.306;2022-09-09T07:19:50;95457.22;;;21.80;50.30
43934;BME280;59081;42.706;23.306;2022-09-09T07:22:16;95382.34;;;21.27;49.41
43934;BME280;59081;42.706;23.306;2022-09-09T07:24:41;95335.41;;;21.16;49.30
43934;BME280;59081;42.706;23.306;2022-09-09T07:27:07;95433.72;;;21.72;49.32
43934;BME280;59081;42.706;23.306;2022-09-09T07:29:32;95383.22;;;21.55;48.66
43934;BME280;59081;42.706;23.306;2022-09-09T07:31:58;95402.66;;;21.86;47.68
43934;BME280;59081;42.706;23.306;2022-09-09T07:34:24;95452.03;;;22.32;47.99
43934;BME280;59081;42.706;23.306;2022-09-09T07:36:49;95378.47;;;21.95;48.50
43934;BME280;59081;42.706;23.306;2022-09-09T07:39:14;95314.19;;;21.63;47.80
43934;BME280;59081;42.706;23.306;2022-09-09T07:41:45;95262.88;;;21.24;47.93
43934;BME280;59081;42.706;23.306;2022-09-09T07:44:18;95448.97;;;22.52;48.44
43934;BME280;59081;42.706;23.306;2022-09-09T07:46:44;95452.50;;;22.36;48.22
43934;BME280;59081;42.706;23.306;2022-09-09T07:49:10;95407.75;;;21.82;49.36
43934;BME280;59081;42.706;23.306;2022-09-09T07:51:41;95454.31;;;22.28;48.91
43934;BME280;59081;42.706;23.306;2022-09-09T07:54:10;95385.94;;;22.42;47.59
43934;BME280;59081;42.706;23.306;2022-09-09T07:56:37;95393.31;;;22.90;47.11
43934;BME280;59081;42.706;23.306;2022-09-09T07:59:03;95347.88;;;22.97;46.49
43934;BME280;59081;42.706;23.306;2022-09-09T08:01:42;95445.13;;;23.97;45.60
43934;BME280;59081;42.706;23.306;2022-09-09T08:04:16;95385.88;;;23.78;44.46
43934;BME280;59081;42.706;23.306;2022-09-09T08:06:53;95356.69;;;23.35;44.07
43934;BME280;59081;42.706;23.306;2022-09-09T08:09:20;95441.47;;;24.08;43.62
43934;BME280;59081;42.706;23.306;2022-09-09T08:11:46;95362.16;;;23.68;43.37
43934;BME280;59081;42.706;23.306;2022-09-09T08:14:12;95440.09;;;24.31;43.47
43934;BME280;59081;42.706;23.306;2022-09-09T08:16:43;95423.22;;;24.25;43.40
43934;BME280;59081;42.706;23.306;2022-09-09T08:19:09;95333.09;;;23.95;43.90
43934;BME280;59081;42.706;23.306;2022-09-09T08:21:37;95334.75;;;23.80;42.87
43934;BME280;59081;42.706;23.306;2022-09-09T08:24:04;95431.06;;;24.74;43.00
43934;BME280;59081;42.706;23.306;2022-09-09T08:26:34;95393.78;;;24.62;41.60
43934;BME280;59081;42.706;23.306;2022-09-09T08:29:02;95367.66;;;24.32;43.14
43934;BME280;59081;42.706;23.306;2022-09-09T08:31:30;95267.00;;;23.31;43.32
43934;BME280;59081;42.706;23.306;2022-09-09T08:33:57;95365.22;;;24.11;42.99
43934;BME280;59081;42.706;23.306;2022-09-09T08:36:32;95439.06;;;24.34;43.15
43934;BME280;59081;42.706;23.306;2022-09-09T08:39:03;95435.38;;;24.45;43.66
43934;BME280;59081;42.706;23.306;2022-09-09T08:58:17;95400.63;;;25.02;41.72
43934;BME280;59081;42.706;23.306;2022-09-09T09:09:11;95424.47;;;26.49;39.84
43934;BME280;59081;42.706;23.306;2022-09-09T09:11:55;95323.63;;;25.93;39.42
43934;BME280;59081;42.706;23.306;2022-09-09T09:14:26;95368.97;;;26.33;39.21
43934;BME280;59081;42.706;23.306;2022-09-09T09:19:39;95432.56;;;27.03;38.95
43934;BME280;59081;42.706;23.306;2022-09-09T09:22:19;95426.38;;;26.04;39.50
43934;BME280;59081;42.706;23.306;2022-09-09T09:30:16;95426.66;;;25.62;40.67
43934;BME280;59081;42.706;23.306;2022-09-09T09:32:58;95296.41;;;24.42;42.03
43934;BME280;59081;42.706;23.306;2022-09-09T09:35:25;95339.50;;;24.32;42.73
43934;BME280;59081;42.706;23.306;2022-09-09T09:37:51;95333.50;;;24.46;42.79
43934;BME280;59081;42.706;23.306;2022-09-09T09:40:19;95393.13;;;25.29;41.61
43934;BME280;59081;42.706;23.306;2022-09-09T09:42:57;95329.34;;;25.07;41.33
43934;BME280;59081;42.706;23.306;2022-09-09T09:45:35;95319.59;;;25.08;41.19
43934;BME280;59081;42.706;23.306;2022-09-09T09:48:09;95377.72;;;25.79;41.10
43934;BME280;59081;42.706;23.306;2022-09-09T09:50:47;95371.16;;;25.89;40.72
43934;BME280;59081;42.706;23.306;2022-09-09T09:53:34;95317.38;;;25.44;41.20
43934;BME280;59081;42.706;23.306;2022-09-09T09:56:02;95393.09;;;26.15;41.09
43934;BME280;59081;42.706;23.306;2022-09-09T09:58:47;95307.53;;;25.88;41.00
43934;BME280;59081;42.706;23.306;2022-09-09T10:01:32;95383.56;;;26.37;41.04
43934;BME280;59081;42.706;23.306;2022-09-09T10:04:12;95275.81;;;25.45;41.52
43934;BME280;59081;42.706;23.306;2022-09-09T10:06:39;95358.56;;;25.72;40.66
43934;BME280;59081;42.706;23.306;2022-09-09T10:09:25;95358.19;;;25.38;41.12
43934;BME280;59081;42.706;23.306;2022-09-09T10:17:38;95291.03;;;24.44;42.79
43934;BME280;59081;42.706;23.306;2022-09-09T10:23:08;95332.03;;;24.40;43.81
43934;BME280;59081;42.706;23.306;2022-09-09T10:25:49;95333.00;;;24.42;43.80
43934;BME280;59081;42.706;23.306;2022-09-09T10:34:43;95364.06;;;25.40;42.55
43934;BME280;59081;42.706;23.306;2022-09-09T10:39:53;95299.97;;;24.97;43.41
43934;BME280;59081;42.706;23.306;2022-09-09T10:42:28;95414.84;;;25.83;42.42
43934;BME280;59081;42.706;23.306;2022-09-09T10:53:08;95298.75;;;25.36;42.29
43934;BME280;59081;42.706;23.306;2022-09-09T10:55:45;95330.31;;;25.53;42.29
43934;BME280;59081;42.706;23.306;2022-09-09T10:58:24;95413.19;;;26.12;42.79
43934;BME280;59081;42.706;23.306;2022-09-09T11:00:57;95307.53;;;25.51;42.49
43934;BME280;59081;42.706;23.306;2022-09-09T11:03:28;95276.59;;;25.26;42.34
43934;BME280;59081;42.706;23.306;2022-09-09T11:06:11;95410.88;;;26.10;41.46
43934;BME280;59081;42.706;23.306;2022-09-09T11:08:39;95413.25;;;25.87;43.05
43934;BME280;59081;42.706;23.306;2022-09-09T11:11:27;95401.13;;;25.74;43.59
43934;BME280;59081;42.706;23.306;2022-09-09T11:14:17;95298.09;;;25.05;43.80
43934;BME280;59081;42.706;23.306;2022-09-09T11:17:01;95298.56;;;25.09;43.82
43934;BME280;59081;42.706;23.306;2022-09-09T11:19:34;95328.75;;;25.33;44.07
43934;BME280;59081;42.706;23.306;2022-09-09T11:22:14;95398.22;;;25.98;44.15
43934;BME280;59081;42.706;23.306;2022-09-09T11:24:51;95326.50;;;25.50;44.63
43934;BME280;59081;42.706;23.306;2022-09-09T11:27:42;95393.56;;;26.19;44.11
43934;BME280;59081;42.706;23.306;2022-09-09T11:38:37;95322.63;;;26.10;43.48
43934;BME280;59081;42.706;23.306;2022-09-09T11:41:07;95352.88;;;26.47;43.24
43934;BME280;59081;42.706;23.306;2022-09-09T11:43:42;95346.22;;;26.44;43.39
43934;BME280;59081;42.706;23.306;2022-09-09T11:46:09;95279.47;;;26.28;43.64
43934;BME280;59081;42.706;23.306;2022-09-09T11:48:45;95332.38;;;26.86;43.09
43934;BME280;59081;42.706;23.306;2022-09-09T11:51:30;95223.88;;;26.36;42.61
43934;BME280;59081;42.706;23.306;2022-09-09T11:54:24;95245.31;;;26.71;42.57
43934;BME280;59081;42.706;23.306;2022-09-09T11:56:45;95220.06;;;26.33;42.81
43934;BME280;59081;42.706;23.306;2022-09-09T11:59:25;95278.81;;;26.93;42.12
43934;BME280;59081;42.706;23.306;2022-09-09T12:02:10;95327.19;;;27.56;41.50
43934;BME280;59081;42.706;23.306;2022-09-09T12:04:59;95327.63;;;28.20;40.80
43934;BME280;59081;42.706;23.306;2022-09-09T12:07:39;95320.00;;;28.77;39.12
43934;BME280;59081;42.706;23.306;2022-09-09T12:12:35;95250.94;;;28.88;38.60
43934;BME280;59081;42.706;23.306;2022-09-09T12:17:44;95197.16;;;29.03;37.15
43934;BME280;59081;42.706;23.306;2022-09-09T12:20:17;95204.63;;;28.86;37.68
43934;BME280;59081;42.706;23.306;2022-09-09T12:28:23;95289.72;;;29.29;38.83
43934;BME280;59081;42.706;23.306;2022-09-09T12:33:39;95206.38;;;28.96;38.44
43934;BME280;59081;42.706;23.306;2022-09-09T12:36:14;95168.34;;;28.63;38.35
43934;BME280;59081;42.706;23.306;2022-09-09T12:38:41;95277.16;;;29.46;38.99
43934;BME280;59081;42.706;23.306;2022-09-09T12:41:19;95159.06;;;28.84;38.38
43934;BME280;59081;42.706;23.306;2022-09-09T12:43:45;95272.75;;;29.73;38.38
43934;BME280;59081;42.706;23.306;2022-09-09T12:46:20;95209.44;;;29.06;38.87
43934;BME280;59081;42.706;23.306;2022-09-09T12:48:47;95174.56;;;28.62;38.89
43934;BME280;59081;42.706;23.306;2022-09-09T12:51:27;95261.19;;;28.99;39.62
43934;BME280;59081;42.706;23.306;2022-09-09T12:53:54;95118.91;;;28.15;38.87
43934;BME280;59081;42.706;23.306;2022-09-09T12:56:22;95269.31;;;29.31;38.61
43934;BME280;59081;42.706;23.306;2022-09-09T12:58:51;95233.38;;;29.33;38.94
43934;BME280;59081;42.706;23.306;2022-09-09T13:01:22;95225.03;;;29.20;38.88
43934;BME280;59081;42.706;23.306;2022-09-09T13:03:49;95227.44;;;29.16;38.69
43934;BME280;59081;42.706;23.306;2022-09-09T13:06:32;95227.44;;;28.80;38.62
43934;BME280;59081;42.706;23.306;2022-09-09T13:09:00;95238.56;;;29.06;38.49
43934;BME280;59081;42.706;23.306;2022-09-09T13:11:36;95261.91;;;29.20;39.15
43934;BME280;59081;42.706;23.306;2022-09-09T13:14:04;95168.44;;;27.80;39.77
43934;BME280;59081;42.706;23.306;2022-09-09T13:16:33;95224.81;;;28.33;39.66
43934;BME280;59081;42.706;23.306;2022-09-09T13:19:08;95169.81;;;27.32;41.23
43934;BME280;59081;42.706;23.306;2022-09-09T13:21:38;95159.03;;;26.83;42.24
43934;BME280;59081;42.706;23.306;2022-09-09T13:24:06;95131.75;;;26.73;42.69
43934;BME280;59081;42.706;23.306;2022-09-09T13:26:33;95174.63;;;27.24;42.11
43934;BME280;59081;42.706;23.306;2022-09-09T13:29:16;95187.13;;;27.28;42.51
43934;BME280;59081;42.706;23.306;2022-09-09T13:31:44;95142.81;;;27.10;42.58
43934;BME280;59081;42.706;23.306;2022-09-09T13:34:30;95164.03;;;27.37;42.30
43934;BME280;59081;42.706;23.306;2022-09-09T13:37:05;95231.31;;;27.65;42.30
43934;BME280;59081;42.706;23.306;2022-09-09T13:39:36;95141.28;;;27.09;42.45
43934;BME280;59081;42.706;23.306;2022-09-09T13:42:03;95220.16;;;27.81;42.33
43934;BME280;59081;42.706;23.306;2022-09-09T13:44:36;95161.94;;;27.04;42.46
43934;BME280;59081;42.706;23.306;2022-09-09T13:47:28;95182.28;;;27.50;42.59
43934;BME280;59081;42.706;23.306;2022-09-09T13:49:54;95159.25;;;26.98;43.25
43934;BME280;59081;42.706;23.306;2022-09-09T13:52:20;95207.41;;;27.53;42.57
43934;BME280;59081;42.706;23.306;2022-09-09T13:54:51;95197.72;;;27.49;41.04
43934;BME280;59081;42.706;23.306;2022-09-09T13:57:22;95211.31;;;27.50;41.77
43934;BME280;59081;42.706;23.306;2022-09-09T13:59:49;95194.97;;;27.22;42.60
43934;BME280;59081;42.706;23.306;2022-09-09T14:02:16;95189.97;;;27.62;40.01
43934;BME280;59081;42.706;23.306;2022-09-09T14:04:42;95136.94;;;27.42;38.33
43934;BME280;59081;42.706;23.306;2022-09-09T14:07:12;95143.84;;;27.20;39.00
43934;BME280;59081;42.706;23.306;2022-09-09T14:09:39;95156.28;;;27.17;39.22
43934;BME280;59081;42.706;23.306;2022-09-09T14:12:08;95115.06;;;27.09;39.29
43934;BME280;59081;42.706;23.306;2022-09-09T14:14:34;95087.53;;;27.43;38.76
43934;BME280;59081;42.706;23.306;2022-09-09T14:17:00;95113.78;;;27.64;38.30
43934;BME280;59081;42.706;23.306;2022-09-09T14:19:25;95175.63;;;28.02;38.04
43934;BME280;59081;42.706;23.306;2022-09-09T14:21:51;95166.56;;;27.62;38.92
43934;BME280;59081;42.706;23.306;2022-09-09T14:24:17;95118.66;;;27.09;39.49
43934;BME280;59081;42.706;23.306;2022-09-09T14:26:42;95092.28;;;27.27;38.83
43934;BME280;59081;42.706;23.306;2022-09-09T14:29:08;95149.94;;;27.79;38.85
43934;BME280;59081;42.706;23.306;2022-09-09T14:31:34;95131.41;;;27.70;39.97
43934;BME280;59081;42.706;23.306;2022-09-09T14:33:59;95083.91;;;27.22;41.09
43934;BME280;59081;42.706;23.306;2022-09-09T14:36:25;95153.72;;;27.27;42.25
43934;BME280;59081;42.706;23.306;2022-09-09T14:38:51;95093.09;;;26.54;43.14
43934;BME280;59081;42.706;23.306;2022-09-09T14:41:18;95091.53;;;26.80;42.72
43934;BME280;59081;42.706;23.306;2022-09-09T14:43:45;95163.84;;;27.35;43.05
43934;BME280;59081;42.706;23.306;2022-09-09T14:46:13;95147.38;;;27.13;42.59
43934;BME280;59081;42.706;23.306;2022-09-09T14:48:39;95088.69;;;26.93;42.12
43934;BME280;59081;42.706;23.306;2022-09-09T14:51:14;95090.66;;;26.98;41.76
43934;BME280;59081;42.706;23.306;2022-09-09T14:53:41;95185.78;;;27.43;42.12
43934;BME280;59081;42.706;23.306;2022-09-09T14:56:12;95131.00;;;26.72;42.50
43934;BME280;59081;42.706;23.306;2022-09-09T14:58:38;95132.31;;;26.71;42.63
43934;BME280;59081;42.706;23.306;2022-09-09T15:01:11;95130.47;;;26.60;42.75